Time;durP1;ratioP1;P1;durP2;ratioP2;P2;SDS_P1;SDS_P2;PMS_P1;PMS_P2;Temp;Humidity;BMP_temperature;BMP_pressure;BME280_temperature;BME280_humidity;BME280_pressure;Samples;Min_cycle;Max_cycle;Signal;HPM_P1;HPM_P2
2022/06/16 00:00:48;;;;;;;7.70;4.25;;;;;;;;;;5100553;28;20024;-58
2022/06/16 00:03:33;;;;;;;4.70;3.60;;;;;;;;;;5106239;28;20031;-58
2022/06/16 00:06:19;;;;;;;7.45;3.28;;;;;;;;;;5094226;28;20418;-58
2022/06/16 00:09:05;;;;;;;4.95;3.13;;;;;;;;;;5104695;28;20070;-59
2022/06/16 00:11:50;;;;;;;6.70;3.50;;;;;;;;;;5112723;28;20036;-58
2022/06/16 00:14:36;;;;;;;4.93;3.20;;;;;;;;;;5103550;28;20113;-64
2022/06/16 00:17:22;;;;;;;6.78;3.85;;;;;;;;;;5112329;28;20070;-57
2022/06/16 00:20:08;;;;;;;4.35;3.08;;;;;;;;;;5111169;28;20047;-68
2022/06/16 00:22:53;;;;;;;5.65;4.18;;;;;;;;;;5111532;28;20253;-68
2022/06/16 00:25:39;;;;;;;6.07;3.50;;;;;;;;;;5099462;28;20031;-69
2022/06/16 00:28:24;;;;;;;9.05;3.88;;;;;;;;;;5099847;28;20112;-68
2022/06/16 00:31:11;;;;;;;7.40;3.78;;;;;;;;;;5109635;28;20115;-69
2022/06/16 00:33:56;;;;;;;7.72;4.75;;;;;;;;;;5098248;28;20036;-68
2022/06/16 00:36:42;;;;;;;8.02;4.32;;;;;;;;;;5106337;28;20064;-63
2022/06/16 00:39:27;;;;;;;6.85;3.58;;;;;;;;;;5106704;28;20081;-61
2022/06/16 00:42:19;;;;;;;8.15;3.88;;;;;;;;;;5112018;28;20375;-63
2022/06/16 00:45:24;;;;;;;5.32;3.47;;;;;;;;;;5099890;28;20020;-63
2022/06/16 00:48:18;;;;;;;4.57;3.17;;;;;;;;;;5108364;28;20129;-63
2022/06/16 00:51:09;;;;;;;4.70;3.33;;;;;;;;;;5113407;28;20173;-62
2022/06/16 00:53:57;;;;;;;8.95;4.00;;;;;;;;;;5110799;28;20132;-61
2022/06/16 00:56:43;;;;;;;5.22;3.20;;;;;;;;;;5096963;28;20024;-67
2022/06/16 00:59:29;;;;;;;4.95;3.45;;;;;;;;;;5109014;28;20445;-69
2022/06/16 01:02:15;;;;;;;5.45;3.13;;;;;;;;;;5092606;28;20028;-69
2022/06/16 01:05:00;;;;;;;8.57;3.33;;;;;;;;;;5108298;28;20020;-67
2022/06/16 01:07:47;;;;;;;5.07;3.22;;;;;;;;;;5105126;28;20098;-68
2022/06/16 01:10:40;;;;;;;5.70;3.33;;;;;;;;;;5101542;28;20028;-56
2022/06/16 01:13:41;;;;;;;5.75;3.63;;;;;;;;;;5108455;28;20031;-69
2022/06/16 01:16:31;;;;;;;6.45;3.15;;;;;;;;;;5101657;28;20024;-68
2022/06/16 01:19:43;;;;;;;5.40;3.20;;;;;;;;;;5092290;28;20106;-69
2022/06/16 01:22:47;;;;;;;5.65;3.58;;;;;;;;;;5112746;28;20024;-68
2022/06/16 01:25:33;;;;;;;5.50;3.58;;;;;;;;;;5093601;28;20024;-67
2022/06/16 01:28:22;;;;;;;5.38;3.80;;;;;;;;;;5094841;28;20043;-56
2022/06/16 01:31:10;;;;;;;7.85;3.95;;;;;;;;;;5096692;28;20019;-61
2022/06/16 01:34:20;;;;;;;5.57;3.53;;;;;;;;;;5102801;28;20039;-63
2022/06/16 01:37:14;;;;;;;5.97;3.40;;;;;;;;;;5103764;28;20094;-63
2022/06/16 01:40:15;;;;;;;5.18;3.50;;;;;;;;;;5106070;28;20053;-63
2022/06/16 01:43:05;;;;;;;8.63;3.30;;;;;;;;;;5102755;28;20043;-62
2022/06/16 01:45:51;;;;;;;4.13;3.22;;;;;;;;;;5103444;28;20164;-64
2022/06/16 01:48:37;;;;;;;4.85;3.22;;;;;;;;;;5106886;28;20028;-63
2022/06/16 01:51:30;;;;;;;5.68;3.50;;;;;;;;;;5083259;28;20043;-55
2022/06/16 01:54:18;;;;;;;6.07;3.28;;;;;;;;;;5111368;28;20032;-57
2022/06/16 01:57:10;;;;;;;6.63;3.40;;;;;;;;;;5112339;28;20019;-57
2022/06/16 01:59:59;;;;;;;6.60;3.38;;;;;;;;;;5102965;28;20017;-56
2022/06/16 02:02:46;;;;;;;7.03;3.85;;;;;;;;;;5105992;28;20020;-56
2022/06/16 02:05:38;;;;;;;5.28;3.20;;;;;;;;;;5096932;28;20028;-57
2022/06/16 02:08:26;;;;;;;5.30;3.40;;;;;;;;;;5108934;28;20024;-61
2022/06/16 02:11:16;;;;;;;7.40;3.78;;;;;;;;;;5098779;28;20086;-60
2022/06/16 02:14:25;;;;;;;5.05;3.40;;;;;;;;;;5100574;28;20165;-60
2022/06/16 02:17:11;;;;;;;6.20;3.03;;;;;;;;;;5094549;28;20059;-61
2022/06/16 02:19:56;;;;;;;4.55;3.53;;;;;;;;;;5097855;28;20380;-61
2022/06/16 02:22:42;;;;;;;5.88;3.30;;;;;;;;;;5106551;28;20024;-60
2022/06/16 02:25:27;;;;;;;4.90;2.95;;;;;;;;;;5094424;28;20028;-63
2022/06/16 02:28:15;;;;;;;4.75;3.00;;;;;;;;;;5111732;28;20110;-58
2022/06/16 02:31:17;;;;;;;4.70;3.15;;;;;;;;;;5109291;28;20023;-57
2022/06/16 02:34:02;;;;;;;5.63;3.40;;;;;;;;;;5102090;28;20235;-57
2022/06/16 02:36:54;;;;;;;7.15;3.85;;;;;;;;;;5099166;28;20045;-56
2022/06/16 02:39:42;;;;;;;6.55;3.28;;;;;;;;;;5104248;28;20027;-56
2022/06/16 02:42:31;;;;;;;6.32;3.38;;;;;;;;;;5107693;28;20027;-65
2022/06/16 02:45:23;;;;;;;5.00;3.42;;;;;;;;;;5097933;28;20027;-62
2022/06/16 02:48:16;;;;;;;7.88;3.90;;;;;;;;;;5100222;28;20410;-61
2022/06/16 02:51:12;;;;;;;7.47;3.75;;;;;;;;;;5104815;28;20051;-62
2022/06/16 02:54:13;;;;;;;4.30;3.15;;;;;;;;;;5106651;28;20389;-62
2022/06/16 02:57:12;;;;;;;5.68;3.40;;;;;;;;;;5103902;28;20549;-63
2022/06/16 02:59:59;;;;;;;6.65;3.58;;;;;;;;;;5101516;28;20360;-62
2022/06/16 03:02:45;;;;;;;4.28;3.50;;;;;;;;;;5105829;28;20031;-54
2022/06/16 03:05:31;;;;;;;5.43;3.30;;;;;;;;;;5103259;28;20387;-61
2022/06/16 03:08:16;;;;;;;6.80;3.60;;;;;;;;;;5090777;28;20034;-60
2022/06/16 03:11:02;;;;;;;3.95;3.22;;;;;;;;;;5109541;28;20044;-62
2022/06/16 03:13:48;;;;;;;4.18;3.35;;;;;;;;;;5107045;28;20066;-61
2022/06/16 03:16:35;;;;;;;6.43;3.20;;;;;;;;;;5106526;28;20032;-60
2022/06/16 03:19:22;;;;;;;5.22;3.08;;;;;;;;;;5100190;28;20023;-57
2022/06/16 03:22:07;;;;;;;3.63;2.92;;;;;;;;;;5099976;28;20048;-61
2022/06/16 03:24:53;;;;;;;5.53;3.63;;;;;;;;;;5111220;28;20069;-62
2022/06/16 03:27:38;;;;;;;6.72;3.58;;;;;;;;;;5111537;28;20031;-63
2022/06/16 03:30:24;;;;;;;5.20;3.38;;;;;;;;;;5107209;28;20207;-62
2022/06/16 03:33:10;;;;;;;5.85;3.47;;;;;;;;;;5108807;28;20065;-62
2022/06/16 03:35:56;;;;;;;5.55;3.55;;;;;;;;;;5102102;28;20047;-62
2022/06/16 03:38:42;;;;;;;5.88;3.50;;;;;;;;;;5106605;28;20420;-56
2022/06/16 03:41:28;;;;;;;5.70;3.50;;;;;;;;;;5110086;28;20024;-57
2022/06/16 03:44:13;;;;;;;5.72;4.00;;;;;;;;;;5097442;28;20028;-56
2022/06/16 03:46:59;;;;;;;6.45;3.17;;;;;;;;;;5107179;28;20024;-55
2022/06/16 03:49:44;;;;;;;5.13;3.30;;;;;;;;;;5108682;28;20050;-57
2022/06/16 03:52:30;;;;;;;6.25;3.30;;;;;;;;;;5106101;28;20404;-58
2022/06/16 03:55:16;;;;;;;6.78;4.13;;;;;;;;;;5103482;28;20408;-61
2022/06/16 03:58:01;;;;;;;7.38;4.53;;;;;;;;;;5109221;28;20026;-58
2022/06/16 04:00:47;;;;;;;4.95;3.30;;;;;;;;;;5113736;28;20375;-62
2022/06/16 04:06:37;;;;;;;6.85;3.55;;;;;;;;;;5109704;28;20023;-62
2022/06/16 04:09:24;;;;;;;6.07;3.80;;;;;;;;;;5085254;28;20083;-62
2022/06/16 04:12:09;;;;;;;6.03;3.53;;;;;;;;;;5108741;28;20027;-62
2022/06/16 04:14:55;;;;;;;6.15;3.60;;;;;;;;;;5108095;28;20023;-64
2022/06/16 04:17:41;;;;;;;5.38;3.60;;;;;;;;;;5108037;28;20035;-64
2022/06/16 04:20:26;;;;;;;5.80;3.63;;;;;;;;;;5103917;28;20024;-63
2022/06/16 04:23:12;;;;;;;5.95;3.33;;;;;;;;;;5111074;28;20085;-64
2022/06/16 04:25:57;;;;;;;6.15;3.42;;;;;;;;;;5113497;27;20024;-65
2022/06/16 04:28:43;;;;;;;5.82;3.45;;;;;;;;;;5102739;28;20064;-63
2022/06/16 04:31:30;;;;;;;6.50;3.33;;;;;;;;;;5095873;28;20540;-65
2022/06/16 04:34:15;;;;;;;5.75;3.08;;;;;;;;;;5116119;28;20051;-67
2022/06/16 04:37:01;;;;;;;4.88;3.67;;;;;;;;;;5110447;28;20509;-56
2022/06/16 04:39:46;;;;;;;7.28;3.42;;;;;;;;;;5095124;28;20107;-56
2022/06/16 04:42:32;;;;;;;5.47;3.40;;;;;;;;;;5105425;28;20023;-53
2022/06/16 04:45:18;;;;;;;5.78;3.10;;;;;;;;;;5101397;28;20027;-57
2022/06/16 04:48:03;;;;;;;5.10;3.38;;;;;;;;;;5106866;28;20114;-57
2022/06/16 04:50:49;;;;;;;5.53;3.38;;;;;;;;;;5105849;28;20113;-63
2022/06/16 04:53:34;;;;;;;5.22;3.30;;;;;;;;;;5104016;28;20082;-58
2022/06/16 04:56:20;;;;;;;5.03;3.63;;;;;;;;;;5108697;28;20027;-58
2022/06/16 04:59:06;;;;;;;4.50;3.13;;;;;;;;;;5112754;28;20039;-56
2022/06/16 05:01:53;;;;;;;7.93;3.90;;;;;;;;;;5108059;27;20031;-55
2022/06/16 05:04:39;;;;;;;6.57;4.03;;;;;;;;;;5107291;28;20019;-57
2022/06/16 05:07:25;;;;;;;4.85;3.40;;;;;;;;;;5110249;28;20101;-57
2022/06/16 05:10:11;;;;;;;7.65;3.60;;;;;;;;;;5109175;28;20038;-61
2022/06/16 05:12:57;;;;;;;6.53;4.07;;;;;;;;;;5100473;28;20027;-67
2022/06/16 05:15:42;;;;;;;4.72;3.10;;;;;;;;;;5089111;28;20028;-68
2022/06/16 05:18:28;;;;;;;6.22;3.40;;;;;;;;;;5106817;28;20047;-67
2022/06/16 05:21:14;;;;;;;7.97;3.42;;;;;;;;;;5102305;28;20027;-67
2022/06/16 05:24:00;;;;;;;4.65;3.08;;;;;;;;;;5086891;28;20020;-66
2022/06/16 05:26:46;;;;;;;5.50;3.53;;;;;;;;;;5107797;28;20516;-67
2022/06/16 05:29:31;;;;;;;5.43;3.30;;;;;;;;;;5102529;28;20020;-56
2022/06/16 05:32:17;;;;;;;6.18;3.40;;;;;;;;;;5111734;28;20031;-56
2022/06/16 05:35:03;;;;;;;5.45;3.13;;;;;;;;;;5103822;28;20506;-57
2022/06/16 05:37:49;;;;;;;4.35;3.58;;;;;;;;;;5110178;28;21611;-58
2022/06/16 05:40:34;;;;;;;5.90;3.08;;;;;;;;;;5109213;28;20031;-57
2022/06/16 05:43:20;;;;;;;7.68;3.40;;;;;;;;;;5091410;28;20024;-58
2022/06/16 05:46:06;;;;;;;4.95;3.20;;;;;;;;;;5104588;28;20089;-64
2022/06/16 05:48:52;;;;;;;5.35;3.45;;;;;;;;;;5105296;28;20024;-58
2022/06/16 05:51:38;;;;;;;6.03;3.78;;;;;;;;;;5108154;28;20044;-69
2022/06/16 05:54:23;;;;;;;5.70;3.38;;;;;;;;;;5105648;28;20038;-68
2022/06/16 05:57:09;;;;;;;4.10;3.10;;;;;;;;;;5106670;28;20505;-69
2022/06/16 05:59:54;;;;;;;4.57;3.40;;;;;;;;;;5109132;28;20026;-67
2022/06/16 06:02:40;;;;;;;5.70;4.00;;;;;;;;;;5097309;28;20119;-68
2022/06/16 06:05:26;;;;;;;5.90;3.85;;;;;;;;;;5106091;28;20024;-58
2022/06/16 06:17:29;;;;;;;6.53;3.50;;;;;;;;;;5103848;28;20023;-62
2022/06/16 06:20:15;;;;;;;4.90;3.15;;;;;;;;;;5110453;28;20118;-62
2022/06/16 06:23:00;;;;;;;6.13;3.50;;;;;;;;;;5100393;28;20027;-59
2022/06/16 06:25:46;;;;;;;5.38;3.45;;;;;;;;;;5095610;28;20093;-68
2022/06/16 06:28:31;;;;;;;4.35;3.63;;;;;;;;;;5097762;28;20052;-58
2022/06/16 06:31:17;;;;;;;6.45;3.40;;;;;;;;;;5102782;28;20035;-56
2022/06/16 06:34:02;;;;;;;5.70;5.10;;;;;;;;;;5105934;28;20045;-57
2022/06/16 06:36:49;;;;;;;6.80;3.55;;;;;;;;;;5103710;28;20024;-57
2022/06/16 06:39:34;;;;;;;5.43;3.70;;;;;;;;;;5109118;28;20032;-59
2022/06/16 06:42:20;;;;;;;7.85;3.55;;;;;;;;;;5111016;28;20073;-64
2022/06/16 06:45:06;;;;;;;5.25;3.40;;;;;;;;;;5085555;28;20397;-69
2022/06/16 06:47:52;;;;;;;5.68;3.50;;;;;;;;;;5105513;28;20031;-68
2022/06/16 06:50:38;;;;;;;5.30;3.78;;;;;;;;;;5111341;28;20189;-71
2022/06/16 06:53:24;;;;;;;6.32;3.50;;;;;;;;;;5097277;28;20044;-67
2022/06/16 06:56:12;;;;;;;5.38;3.83;;;;;;;;;;5109209;28;20037;-67
2022/06/16 06:58:59;;;;;;;4.45;3.28;;;;;;;;;;5105915;28;20390;-67
2022/06/16 07:01:45;;;;;;;4.53;3.00;;;;;;;;;;5104376;28;20035;-57
2022/06/16 07:04:31;;;;;;;5.38;3.40;;;;;;;;;;5106538;28;20023;-62
2022/06/16 07:07:19;;;;;;;4.55;3.20;;;;;;;;;;5108585;28;20027;-62
2022/06/16 07:10:06;;;;;;;4.40;2.97;;;;;;;;;;5095821;28;20084;-65
2022/06/16 07:12:52;;;;;;;7.43;3.50;;;;;;;;;;5122761;27;20086;-59
2022/06/16 07:15:38;;;;;;;7.20;3.33;;;;;;;;;;5111579;28;20118;-57
2022/06/16 07:18:23;;;;;;;8.55;4.25;;;;;;;;;;5107754;28;20032;-60
2022/06/16 07:21:09;;;;;;;4.25;3.30;;;;;;;;;;5107741;28;20474;-67
2022/06/16 07:23:54;;;;;;;8.40;3.78;;;;;;;;;;5109446;28;20446;-64
2022/06/16 07:26:40;;;;;;;7.80;4.40;;;;;;;;;;5104962;28;20521;-63
2022/06/16 07:29:25;;;;;;;8.50;4.05;;;;;;;;;;5108824;28;20500;-65
2022/06/16 07:32:11;;;;;;;5.65;3.50;;;;;;;;;;5103948;28;20028;-66
2022/06/16 07:34:56;;;;;;;6.45;3.50;;;;;;;;;;5098358;28;20509;-67
2022/06/16 07:37:42;;;;;;;7.13;3.45;;;;;;;;;;5108418;28;20015;-64
2022/06/16 07:40:28;;;;;;;7.53;3.83;;;;;;;;;;5111154;28;20024;-66
2022/06/16 07:43:13;;;;;;;8.85;3.83;;;;;;;;;;5117395;27;20058;-65
2022/06/16 07:46:01;;;;;;;7.68;3.83;;;;;;;;;;5098242;27;20022;-66
2022/06/16 07:48:47;;;;;;;6.20;3.60;;;;;;;;;;5092213;28;20028;-67
2022/06/16 07:51:33;;;;;;;8.88;4.53;;;;;;;;;;5102788;28;20100;-72
2022/06/16 07:54:19;;;;;;;7.13;4.18;;;;;;;;;;5109821;28;20378;-68
2022/06/16 07:57:04;;;;;;;14.02;5.55;;;;;;;;;;5105702;28;20102;-73
2022/06/16 07:59:50;;;;;;;23.13;9.00;;;;;;;;;;5109836;28;20089;-73
2022/06/16 08:02:36;;;;;;;11.93;5.85;;;;;;;;;;5105541;28;20038;-76
2022/06/16 08:05:21;;;;;;;26.50;10.18;;;;;;;;;;5100237;28;20028;-72
2022/06/16 08:08:08;;;;;;;9.05;4.10;;;;;;;;;;5102625;28;20107;-67
2022/06/16 08:10:53;;;;;;;6.60;3.95;;;;;;;;;;5098496;28;20016;-67
2022/06/16 08:13:39;;;;;;;10.55;5.22;;;;;;;;;;5113349;28;20118;-73
2022/06/16 08:16:25;;;;;;;7.82;3.72;;;;;;;;;;5098978;28;20378;-68
2022/06/16 08:19:11;;;;;;;8.65;3.90;;;;;;;;;;5105244;28;20059;-66
2022/06/16 08:21:56;;;;;;;8.00;3.75;;;;;;;;;;5111949;28;20031;-67
2022/06/16 08:24:42;;;;;;;9.45;4.03;;;;;;;;;;5108920;28;20497;-68
2022/06/16 08:27:30;;;;;;;6.47;3.75;;;;;;;;;;5096342;28;20024;-68
2022/06/16 08:30:17;;;;;;;7.45;3.92;;;;;;;;;;5105752;28;20015;-68
2022/06/16 08:33:03;;;;;;;6.85;3.90;;;;;;;;;;5099883;28;20079;-67
2022/06/16 08:35:48;;;;;;;7.82;4.32;;;;;;;;;;5099518;28;20394;-68
2022/06/16 08:38:34;;;;;;;6.97;4.07;;;;;;;;;;5113074;28;20541;-68
2022/06/16 08:41:25;;;;;;;5.93;3.70;;;;;;;;;;5108298;28;20020;-68
2022/06/16 08:44:15;;;;;;;5.75;3.70;;;;;;;;;;5103286;28;20031;-68
2022/06/16 08:47:06;;;;;;;6.50;3.78;;;;;;;;;;5114016;27;20094;-67
2022/06/16 08:49:57;;;;;;;7.13;3.30;;;;;;;;;;5111999;28;20055;-66
2022/06/16 08:52:50;;;;;;;4.80;3.40;;;;;;;;;;5097463;28;20130;-73
2022/06/16 08:55:45;;;;;;;6.22;3.53;;;;;;;;;;5112964;28;20478;-65
2022/06/16 08:58:49;;;;;;;7.10;3.60;;;;;;;;;;5108166;28;20062;-65
2022/06/16 09:01:38;;;;;;;6.07;3.17;;;;;;;;;;5109045;28;20031;-64
2022/06/16 09:04:30;;;;;;;6.13;3.72;;;;;;;;;;5090398;28;20034;-65
2022/06/16 09:07:25;;;;;;;6.43;3.65;;;;;;;;;;5110989;28;20084;-63
2022/06/16 09:10:17;;;;;;;6.65;3.50;;;;;;;;;;5103702;28;20157;-65
2022/06/16 09:13:02;;;;;;;8.00;3.22;;;;;;;;;;5104491;28;20363;-66
2022/06/16 09:15:57;;;;;;;9.63;3.83;;;;;;;;;;5112212;28;20012;-67
2022/06/16 09:18:58;;;;;;;4.40;2.92;;;;;;;;;;5107766;28;20031;-66
2022/06/16 09:21:53;;;;;;;10.85;3.80;;;;;;;;;;5100086;28;20068;-66
2022/06/16 09:24:44;;;;;;;8.15;3.60;;;;;;;;;;5095230;28;20101;-66
2022/06/16 09:27:35;;;;;;;7.38;3.40;;;;;;;;;;5108890;28;20027;-68
2022/06/16 09:30:26;;;;;;;6.35;3.35;;;;;;;;;;5103198;28;20028;-74
2022/06/16 09:33:15;;;;;;;5.90;3.03;;;;;;;;;;5103347;28;20474;-73
2022/06/16 09:36:19;;;;;;;4.82;2.78;;;;;;;;;;5111176;28;20035;-73
2022/06/16 09:39:25;;;;;;;6.80;3.42;;;;;;;;;;5096932;28;20016;-74
2022/06/16 09:42:35;;;;;;;8.93;3.22;;;;;;;;;;5110634;28;20016;-74
2022/06/16 09:45:26;;;;;;;6.78;3.08;;;;;;;;;;5104059;28;20023;-68
2022/06/16 09:48:30;;;;;;;7.72;3.95;;;;;;;;;;5111317;28;20386;-66
2022/06/16 09:51:21;;;;;;;6.45;3.47;;;;;;;;;;5100428;28;20056;-68
2022/06/16 09:54:27;;;;;;;7.57;3.58;;;;;;;;;;5112173;28;20039;-68
2022/06/16 09:57:15;;;;;;;6.22;3.63;;;;;;;;;;5099987;28;20399;-68
2022/06/16 10:00:03;;;;;;;7.88;3.75;;;;;;;;;;5098688;28;20379;-68
2022/06/16 10:02:52;;;;;;;7.25;3.33;;;;;;;;;;5106752;28;20094;-67
2022/06/16 10:05:41;;;;;;;4.70;3.38;;;;;;;;;;5096935;28;20069;-74
2022/06/16 10:08:35;;;;;;;9.35;3.45;;;;;;;;;;5107606;28;20028;-65
2022/06/16 10:11:32;;;;;;;7.50;3.53;;;;;;;;;;5092023;28;20085;-66
2022/06/16 10:14:38;;;;;;;5.40;3.40;;;;;;;;;;5104388;28;20043;-69
2022/06/16 10:17:24;;;;;;;5.13;3.38;;;;;;;;;;5107886;28;20397;-66
2022/06/16 10:20:11;;;;;;;6.38;2.92;;;;;;;;;;5094719;28;20367;-66
2022/06/16 10:23:15;;;;;;;5.72;2.97;;;;;;;;;;5108389;28;20103;-62
2022/06/16 10:26:02;;;;;;;6.07;3.30;;;;;;;;;;5115397;28;20086;-74
2022/06/16 10:28:50;;;;;;;7.70;3.92;;;;;;;;;;5113654;28;20027;-73
2022/06/16 10:31:38;;;;;;;5.43;3.38;;;;;;;;;;5101517;28;20019;-73
2022/06/16 10:34:30;;;;;;;7.50;3.60;;;;;;;;;;5114415;28;20036;-73
2022/06/16 10:37:18;;;;;;;6.18;3.13;;;;;;;;;;5108226;28;20027;-75
2022/06/16 10:40:06;;;;;;;5.40;2.90;;;;;;;;;;5108998;28;20077;-74
2022/06/16 10:42:54;;;;;;;4.93;2.90;;;;;;;;;;5109629;28;20019;-67
2022/06/16 10:45:40;;;;;;;6.82;3.22;;;;;;;;;;5110246;28;20031;-74
2022/06/16 10:48:28;;;;;;;5.93;3.28;;;;;;;;;;5103205;28;20028;-73
2022/06/16 10:51:16;;;;;;;7.00;3.53;;;;;;;;;;5114416;28;20048;-73
2022/06/16 10:54:10;;;;;;;6.90;3.47;;;;;;;;;;5108481;28;20031;-74
2022/06/16 10:57:07;;;;;;;6.90;3.60;;;;;;;;;;5111625;28;20488;-74
2022/06/16 11:00:06;;;;;;;6.32;3.00;;;;;;;;;;5117826;28;20031;-75
2022/06/16 11:02:51;;;;;;;5.78;3.10;;;;;;;;;;5116222;28;20011;-64
2022/06/16 11:05:46;;;;;;;7.43;3.10;;;;;;;;;;5099782;28;20066;-62
2022/06/16 11:08:35;;;;;;;8.15;2.90;;;;;;;;;;5105089;28;20021;-64
2022/06/16 11:11:32;;;;;;;7.22;3.97;;;;;;;;;;5108031;28;20027;-64
2022/06/16 11:14:21;;;;;;;5.85;3.10;;;;;;;;;;5107520;28;20043;-63
2022/06/16 11:17:08;;;;;;;7.95;3.80;;;;;;;;;;5101946;28;20395;-66
2022/06/16 11:19:58;;;;;;;12.45;3.85;;;;;;;;;;5110210;28;20043;-62
2022/06/16 11:22:45;;;;;;;5.75;3.13;;;;;;;;;;5114781;28;20019;-68
2022/06/16 11:25:33;;;;;;;7.93;3.20;;;;;;;;;;5111324;28;20110;-68
2022/06/16 11:28:22;;;;;;;7.60;3.63;;;;;;;;;;5107646;28;20016;-68
2022/06/16 11:31:08;;;;;;;8.70;4.95;;;;;;;;;;5121968;28;20039;-69
2022/06/16 11:34:08;;;;;;;6.07;3.60;;;;;;;;;;5104701;28;20027;-68
2022/06/16 11:36:53;;;;;;;10.35;3.90;;;;;;;;;;5098198;28;20471;-68
2022/06/16 11:39:39;;;;;;;7.38;3.20;;;;;;;;;;5090455;28;20030;-68
2022/06/16 11:42:24;;;;;;;6.05;3.60;;;;;;;;;;5112026;28;20020;-68
2022/06/16 11:45:22;;;;;;;6.18;3.63;;;;;;;;;;5103029;28;20073;-69
2022/06/16 11:48:40;;;;;;;6.82;3.78;;;;;;;;;;5113604;28;20016;-69
2022/06/16 11:51:37;;;;;;;5.70;3.88;;;;;;;;;;5085745;28;20071;-68
2022/06/16 11:54:32;;;;;;;5.30;2.97;;;;;;;;;;5114634;28;20035;-64
2022/06/16 11:57:19;;;;;;;4.00;3.25;;;;;;;;;;5104591;28;20120;-63
2022/06/16 12:00:04;;;;;;;6.60;3.28;;;;;;;;;;5107761;28;20019;-63
2022/06/16 12:02:56;;;;;;;7.40;3.42;;;;;;;;;;5103920;28;20030;-63
2022/06/16 12:05:47;;;;;;;6.07;3.08;;;;;;;;;;5099197;28;20055;-62
2022/06/16 12:08:38;;;;;;;8.55;3.22;;;;;;;;;;5100536;28;20506;-62
2022/06/16 12:11:43;;;;;;;6.90;3.10;;;;;;;;;;5109300;28;20360;-63
2022/06/16 12:14:34;;;;;;;4.65;3.05;;;;;;;;;;5107488;28;20028;-67
2022/06/16 12:17:26;;;;;;;6.80;3.08;;;;;;;;;;5110913;28;20482;-68
2022/06/16 12:20:31;;;;;;;8.98;3.17;;;;;;;;;;5105092;28;20031;-68
2022/06/16 12:23:26;;;;;;;6.50;3.00;;;;;;;;;;5104307;28;20020;-69
2022/06/16 12:26:16;;;;;;;6.22;2.97;;;;;;;;;;5097269;28;20421;-68
2022/06/16 12:29:07;;;;;;;6.28;2.90;;;;;;;;;;5101783;28;20023;-68
2022/06/16 12:32:12;;;;;;;6.30;3.13;;;;;;;;;;5108947;28;20035;-66
2022/06/16 12:34:57;;;;;;;5.93;2.90;;;;;;;;;;5109584;28;20059;-63
2022/06/16 12:38:12;;;;;;;6.07;2.83;;;;;;;;;;5113652;28;20498;-65
2022/06/16 12:41:05;;;;;;;3.78;2.83;;;;;;;;;;5103691;28;20031;-62
2022/06/16 12:44:01;;;;;;;6.88;3.05;;;;;;;;;;5110268;28;20085;-64
2022/06/16 12:46:49;;;;;;;8.82;3.47;;;;;;;;;;5117164;27;20023;-64
2022/06/16 12:49:39;;;;;;;4.35;2.75;;;;;;;;;;5116440;27;20047;-65
2022/06/16 12:52:27;;;;;;;6.97;3.13;;;;;;;;;;5110892;28;20028;-67
2022/06/16 12:55:15;;;;;;;10.93;3.33;;;;;;;;;;5109014;28;20036;-65
2022/06/16 12:58:06;;;;;;;6.93;3.00;;;;;;;;;;5099748;28;20333;-66
2022/06/16 13:00:52;;;;;;;6.00;2.80;;;;;;;;;;5110280;27;20536;-65
2022/06/16 13:03:43;;;;;;;7.07;3.10;;;;;;;;;;5111588;28;20051;-66
2022/06/16 13:06:29;;;;;;;6.85;2.95;;;;;;;;;;5101477;28;20035;-67
2022/06/16 13:09:14;;;;;;;3.78;2.72;;;;;;;;;;5100404;28;20074;-73
2022/06/16 13:12:02;;;;;;;5.68;2.95;;;;;;;;;;5107754;28;20033;-68
2022/06/16 13:14:57;;;;;;;7.13;3.05;;;;;;;;;;5112034;27;20154;-68
2022/06/16 13:17:55;;;;;;;6.13;3.03;;;;;;;;;;5110985;27;20023;-69
2022/06/16 13:20:43;;;;;;;6.30;2.97;;;;;;;;;;5102876;28;20452;-68
2022/06/16 13:23:31;;;;;;;4.73;2.90;;;;;;;;;;5106743;28;20058;-68
2022/06/16 13:26:27;;;;;;;5.88;2.55;;;;;;;;;;5101132;28;20031;-63
2022/06/16 13:29:18;;;;;;;8.50;3.42;;;;;;;;;;5112451;28;20036;-66
2022/06/16 13:32:19;;;;;;;8.85;2.53;;;;;;;;;;5090580;28;20032;-63
2022/06/16 13:35:13;;;;;;;4.57;2.45;;;;;;;;;;5103291;28;20051;-63
2022/06/16 13:38:02;;;;;;;3.58;2.72;;;;;;;;;;5117019;28;20035;-64
2022/06/16 13:40:48;;;;;;;3.28;2.58;;;;;;;;;;5103068;28;20525;-63
2022/06/16 13:43:35;;;;;;;5.68;2.60;;;;;;;;;;5108612;28;20125;-62
2022/06/16 13:46:20;;;;;;;6.55;2.70;;;;;;;;;;5110066;28;20058;-67
2022/06/16 13:49:06;;;;;;;6.93;2.72;;;;;;;;;;5099673;28;20035;-66
2022/06/16 13:51:52;;;;;;;8.43;2.97;;;;;;;;;;5105340;28;20497;-65
2022/06/16 13:54:38;;;;;;;8.90;3.47;;;;;;;;;;5103304;28;20446;-65
2022/06/16 13:57:26;;;;;;;6.60;3.13;;;;;;;;;;5093907;28;20454;-65
2022/06/16 14:00:28;;;;;;;7.35;3.00;;;;;;;;;;5089241;28;20028;-66
2022/06/16 14:03:19;;;;;;;7.22;2.83;;;;;;;;;;5101730;28;20024;-67
2022/06/16 14:06:06;;;;;;;8.05;3.22;;;;;;;;;;5108846;28;20032;-63
2022/06/16 14:08:54;;;;;;;8.23;3.60;;;;;;;;;;5094763;28;20020;-63
2022/06/16 14:12:09;;;;;;;5.60;3.03;;;;;;;;;;5113060;28;20024;-65
2022/06/16 14:14:54;;;;;;;8.45;3.13;;;;;;;;;;5099804;28;20040;-64
2022/06/16 14:17:42;;;;;;;6.07;3.58;;;;;;;;;;5107759;28;20028;-63
2022/06/16 14:20:35;;;;;;;4.32;2.78;;;;;;;;;;5105574;28;20019;-63
2022/06/16 14:23:25;;;;;;;7.78;3.72;;;;;;;;;;5110044;28;20060;-68
2022/06/16 14:26:15;;;;;;;4.50;2.88;;;;;;;;;;5108541;28;20474;-65
2022/06/16 14:29:03;;;;;;;7.68;3.30;;;;;;;;;;5106623;28;20026;-66
2022/06/16 14:31:50;;;;;;;4.80;2.60;;;;;;;;;;5106322;28;20030;-65
2022/06/16 14:34:38;;;;;;;6.28;3.13;;;;;;;;;;5111556;28;20035;-65
2022/06/16 14:37:42;;;;;;;9.73;3.70;;;;;;;;;;5112147;28;20031;-65
2022/06/16 14:40:34;;;;;;;5.57;3.03;;;;;;;;;;5111523;28;20094;-72
2022/06/16 14:43:22;;;;;;;8.18;3.33;;;;;;;;;;5101759;28;20019;-64
2022/06/16 14:46:16;;;;;;;9.75;3.17;;;;;;;;;;5109859;28;20027;-65
2022/06/16 14:49:05;;;;;;;8.70;3.67;;;;;;;;;;5095364;28;20023;-64
2022/06/16 14:51:51;;;;;;;7.60;3.73;;;;;;;;;;5078375;28;20491;-64
2022/06/16 14:54:41;;;;;;;6.60;3.47;;;;;;;;;;5087265;28;20028;-63
2022/06/16 14:57:28;;;;;;;4.80;2.88;;;;;;;;;;5078376;28;20020;-64
2022/06/16 15:00:24;;;;;;;5.25;3.50;;;;;;;;;;5082928;28;20052;-63
2022/06/16 15:03:11;;;;;;;6.20;3.40;;;;;;;;;;5086628;28;20021;-73
2022/06/16 15:06:02;;;;;;;5.93;4.00;;;;;;;;;;5091109;28;20028;-74
2022/06/16 15:08:49;;;;;;;8.23;3.70;;;;;;;;;;5088000;28;20054;-74
2022/06/16 15:11:38;;;;;;;6.22;3.25;;;;;;;;;;5079424;28;20052;-74
2022/06/16 15:14:24;;;;;;;6.88;3.78;;;;;;;;;;5083084;28;20035;-74
2022/06/16 15:20:16;;;;;;;7.65;3.92;;;;;;;;;;5088220;28;20461;-64
2022/06/16 15:23:03;;;;;;;7.82;4.30;;;;;;;;;;5087842;28;20048;-65
2022/06/16 15:25:59;;;;;;;7.05;4.82;;;;;;;;;;5089140;28;20494;-64
2022/06/16 15:28:49;;;;;;;6.85;3.65;;;;;;;;;;5087064;28;20024;-65
2022/06/16 15:31:38;;;;;;;8.93;3.42;;;;;;;;;;5086023;28;20028;-63
2022/06/16 15:37:28;;;;;;;6.22;3.20;;;;;;;;;;5089466;28;20074;-73
2022/06/16 15:40:13;;;;;;;6.55;3.63;;;;;;;;;;5145885;22;20050;-66
2022/06/16 15:42:59;;;;;;;6.65;3.42;;;;;;;;;;5133934;27;20023;-69
2022/06/16 15:45:52;;;;;;;4.63;3.15;;;;;;;;;;5126835;27;20023;-68
2022/06/16 15:48:39;;;;;;;3.38;2.88;;;;;;;;;;5124260;27;20054;-67
2022/06/16 15:51:25;;;;;;;5.00;3.25;;;;;;;;;;5130803;27;20489;-68
2022/06/16 15:54:12;;;;;;;7.90;4.00;;;;;;;;;;5134256;27;20043;-71
2022/06/16 15:56:59;;;;;;;5.40;3.47;;;;;;;;;;5116743;27;20098;-67
2022/06/16 15:59:49;;;;;;;7.15;3.38;;;;;;;;;;5129820;27;20038;-67
2022/06/16 16:02:37;;;;;;;8.18;3.38;;;;;;;;;;5126803;27;20363;-68
2022/06/16 16:05:25;;;;;;;7.05;3.50;;;;;;;;;;5131321;27;20038;-67
2022/06/16 16:08:15;;;;;;;9.00;3.00;;;;;;;;;;5133805;27;20165;-66
2022/06/16 16:11:17;;;;;;;5.38;3.42;;;;;;;;;;5120546;27;20098;-65
2022/06/16 16:14:07;;;;;;;10.73;4.20;;;;;;;;;;5125685;27;20042;-67
2022/06/16 16:16:58;;;;;;;6.63;3.22;;;;;;;;;;5103992;28;20414;-67
2022/06/16 16:19:58;;;;;;;6.15;3.10;;;;;;;;;;5108664;28;20024;-67
2022/06/16 16:22:53;;;;;;;5.38;3.22;;;;;;;;;;5112619;28;20026;-66
2022/06/16 16:25:40;;;;;;;8.20;4.63;;;;;;;;;;5101940;28;20380;-68
2022/06/16 16:28:27;;;;;;;8.05;5.75;;;;;;;;;;5106770;28;20024;-67
2022/06/16 16:31:14;;;;;;;4.68;3.15;;;;;;;;;;5111045;28;20387;-66
2022/06/16 16:34:01;;;;;;;6.43;3.70;;;;;;;;;;5102144;28;20032;-73
2022/06/16 16:36:50;;;;;;;11.32;6.40;;;;;;;;;;5112368;28;20063;-72
2022/06/16 16:39:37;;;;;;;7.67;4.30;;;;;;;;;;5111593;28;20067;-71
2022/06/16 16:45:28;;;;;;;10.07;4.07;;;;;;;;;;5100124;28;20020;-70
2022/06/16 16:48:17;;;;;;;5.55;3.17;;;;;;;;;;5112926;28;20020;-70
2022/06/16 16:51:09;;;;;;;5.18;3.47;;;;;;;;;;5120828;28;20024;-65
2022/06/16 16:53:57;;;;;;;5.05;2.95;;;;;;;;;;5100088;28;20039;-67
2022/06/16 16:56:51;;;;;;;6.10;3.15;;;;;;;;;;5111052;28;20463;-66
2022/06/16 16:59:37;;;;;;;4.40;2.30;;;;;;;;;;5095080;28;20076;-66
2022/06/16 17:02:22;;;;;;;5.60;2.70;;;;;;;;;;5105678;28;20024;-66
2022/06/16 17:05:08;;;;;;;8.35;2.78;;;;;;;;;;5098673;28;20031;-66
2022/06/16 17:07:54;;;;;;;7.95;2.60;;;;;;;;;;5111550;28;20032;-69
2022/06/16 17:10:39;;;;;;;4.82;2.25;;;;;;;;;;5106840;28;20019;-69
2022/06/16 17:13:25;;;;;;;6.45;2.88;;;;;;;;;;5090424;28;20479;-72
2022/06/16 17:16:10;;;;;;;7.13;2.22;;;;;;;;;;5111673;28;20118;-71